createdAt,value
2019-06-07T00:00:31.939Z,7.89
2019-06-07T00:05:28.232Z,8.30
2019-06-07T00:10:50.843Z,9.29
2019-06-07T00:25:55.909Z,8.30
2019-06-07T00:31:05.031Z,9.10
2019-06-07T00:41:07.720Z,9.00
2019-06-07T00:46:14.343Z,8.47
2019-06-07T00:50:59.058Z,6.98
2019-06-07T00:56:18.759Z,7.05
2019-06-07T01:01:28.679Z,7.04
2019-06-07T01:06:22.959Z,7.61
2019-06-07T01:11:25.699Z,8.40
2019-06-07T01:16:55.608Z,8.05
2019-06-07T01:21:54.281Z,7.90
2019-06-07T01:26:40.741Z,7.50
2019-06-07T01:31:54.518Z,7.16
2019-06-07T01:36:47.132Z,7.28
2019-06-07T01:41:55.850Z,7.70
2019-06-07T01:46:56.559Z,7.00
2019-06-07T01:51:52.923Z,6.30
2019-06-07T01:56:57.575Z,6.66
2019-06-07T02:02:11.232Z,6.48
2019-06-07T02:07:01.179Z,6.94
2019-06-07T02:12:24.670Z,6.85
2019-06-07T02:17:17.253Z,6.57
2019-06-07T02:22:07.420Z,7.37
2019-06-07T02:27:14.934Z,7.30
2019-06-07T02:32:13.710Z,7.17
2019-06-07T02:37:41.093Z,6.41
2019-06-07T02:42:36.633Z,7.01
2019-06-07T02:47:43.049Z,7.26
2019-06-07T02:53:04.011Z,6.81
2019-06-07T02:57:56.135Z,6.98
2019-06-07T03:02:59.480Z,6.67
2019-06-07T03:07:50.286Z,7.02
2019-06-07T03:13:03.378Z,6.64
2019-06-07T03:17:57.624Z,7.95
2019-06-07T03:23:02.309Z,7.63
2019-06-07T03:28:01.650Z,7.67
2019-06-07T03:33:12.509Z,7.26
2019-06-07T03:38:22.762Z,7.95
2019-06-07T03:48:22.351Z,6.78
2019-06-07T03:53:25.208Z,7.20
2019-06-07T04:03:51.952Z,7.51
2019-06-07T04:08:44.436Z,6.92
2019-06-07T04:13:53.533Z,7.13
2019-06-07T04:19:08.998Z,6.92
2019-06-07T04:24:01.883Z,7.44
2019-06-07T04:29:32.469Z,6.94
2019-06-07T04:34:06.980Z,7.25
2019-06-07T04:39:29.904Z,6.45
2019-06-07T04:44:14.882Z,6.24
2019-06-07T04:49:18.430Z,6.17
2019-06-07T04:54:35.183Z,5.94
2019-06-07T05:00:04.183Z,6.55
2019-06-07T05:04:28.947Z,6.27
2019-06-07T05:09:35.442Z,6.50
2019-06-07T05:14:57.029Z,6.52
2019-06-07T05:19:58.922Z,6.25
2019-06-07T05:24:59.447Z,6.51
2019-06-07T05:35:14.867Z,6.55
2019-06-07T05:40:22.801Z,6.45
2019-06-07T05:45:34.954Z,7.39
2019-06-07T05:55:37.660Z,7.06
2019-06-07T06:00:28.398Z,7.15
2019-06-07T06:10:32.368Z,7.07
2019-06-07T06:15:56.420Z,7.29
2019-06-07T06:21:15.632Z,11.62
2019-06-07T06:26:08.505Z,9.16
2019-06-07T06:31:08.965Z,8.56
2019-06-07T06:35:51.215Z,7.52
2019-06-07T06:41:15.724Z,10.04
2019-06-07T06:46:11.160Z,8.56
2019-06-07T06:56:11.411Z,7.78
2019-06-07T07:06:25.711Z,7.49
2019-06-07T07:11:33.650Z,7.48
2019-06-07T07:16:31.671Z,7.64
2019-06-07T07:26:30.684Z,7.97
2019-06-07T07:31:58.110Z,7.69
2019-06-07T07:36:48.328Z,8.15
2019-06-07T07:42:18.027Z,9.20
2019-06-07T07:47:08.004Z,11.85
2019-06-07T07:52:21.977Z,10.45
2019-06-07T07:57:13.285Z,10.75
2019-06-07T08:02:15.317Z,12.39
2019-06-07T08:07:21.611Z,12.43
2019-06-07T08:12:54.728Z,12.77
2019-06-07T08:17:41.504Z,12.50
2019-06-07T08:22:47.671Z,11.19
2019-06-07T08:27:47.022Z,11.65
2019-06-07T08:33:25.277Z,11.10
2019-06-07T08:38:25.313Z,9.50
2019-06-07T08:43:20.643Z,8.62
2019-06-07T08:53:32.000Z,8.50
2019-06-07T08:58:18.318Z,9.52
2019-06-07T09:03:29.598Z,10.33
2019-06-07T09:08:37.451Z,11.64
2019-06-07T09:18:42.870Z,11.18
2019-06-07T09:28:52.877Z,9.41
2019-06-07T09:33:45.840Z,9.42
2019-06-07T09:38:42.158Z,9.03
2019-06-07T09:44:24.183Z,9.32
2019-06-07T09:49:14.243Z,9.30
2019-06-07T09:54:06.870Z,10.69
2019-06-07T09:59:12.822Z,10.13
2019-06-07T10:04:30.895Z,9.86
2019-06-07T10:19:32.897Z,8.37
2019-06-07T10:24:32.415Z,8.34
2019-06-07T10:29:35.288Z,7.68
2019-06-07T11:20:44.828Z,6.81
2019-06-07T11:30:51.736Z,6.22
2019-06-07T11:46:00.338Z,5.67
2019-06-07T12:01:21.870Z,4.37
2019-06-07T12:06:16.526Z,4.07
2019-06-07T12:11:25.375Z,4.74
2019-06-07T12:26:41.105Z,4.41
2019-06-07T12:52:19.464Z,4.26
2019-06-07T12:57:10.553Z,4.10
2019-06-07T13:27:49.416Z,4.14
2019-06-07T13:32:38.228Z,4.43
2019-06-07T13:37:58.793Z,4.41
2019-06-07T13:42:52.524Z,4.57
2019-06-07T13:52:48.453Z,4.23
2019-06-07T14:03:00.541Z,4.49
2019-06-07T14:08:13.335Z,4.69
2019-06-07T14:13:17.276Z,4.77
2019-06-07T14:18:22.532Z,4.51
2019-06-07T14:23:16.729Z,4.64
2019-06-07T14:28:34.510Z,4.49
2019-06-07T14:33:39.935Z,4.07
2019-06-07T14:38:35.408Z,4.71
2019-06-07T14:43:38.266Z,4.33
2019-06-07T14:53:55.377Z,4.50
2019-06-07T14:58:59.805Z,4.64
2019-06-07T15:04:26.357Z,3.94
2019-06-07T15:09:15.732Z,4.96
2019-06-07T15:14:29.736Z,4.28
2019-06-07T15:29:29.787Z,5.39
2019-06-07T15:49:51.477Z,4.16
2019-06-07T15:54:53.483Z,4.63
2019-06-07T16:00:14.452Z,5.34
2019-06-07T16:25:35.774Z,4.71
2019-06-07T16:45:55.687Z,4.46
2019-06-07T16:50:46.667Z,4.28
2019-06-07T16:56:07.249Z,3.88
2019-06-07T17:06:10.993Z,5.61
2019-06-07T17:11:29.739Z,4.91
2019-06-07T17:16:20.976Z,4.43
2019-06-07T17:21:33.356Z,4.28
2019-06-07T17:26:23.506Z,4.22
2019-06-07T17:36:27.914Z,4.41
2019-06-07T17:41:50.299Z,5.63
2019-06-07T17:46:38.273Z,4.22
2019-06-07T17:51:47.994Z,3.95
2019-06-07T17:57:02.880Z,4.09
2019-06-07T18:17:09.678Z,4.92
2019-06-07T18:22:38.313Z,4.94
2019-06-07T18:27:43.538Z,4.57
2019-06-07T18:32:28.683Z,5.23
2019-06-07T18:37:42.925Z,5.12
2019-06-07T18:47:49.435Z,4.86
2019-06-07T18:57:59.530Z,4.79
2019-06-07T19:03:19.614Z,6.49
2019-06-07T19:08:11.005Z,6.20
2019-06-07T19:18:14.094Z,13.20
2019-06-07T19:23:23.673Z,6.08
2019-06-07T19:28:24.107Z,6.37
2019-06-07T19:33:40.683Z,8.42
2019-06-07T19:48:39.892Z,5.66
2019-06-07T19:59:00.057Z,5.92
2019-06-07T20:04:20.239Z,6.06
2019-06-07T20:08:55.004Z,5.83
2019-06-07T20:14:28.731Z,9.93
2019-06-07T20:19:09.062Z,4.98
2019-06-07T20:24:27.755Z,9.52
2019-06-07T20:34:29.141Z,5.67
2019-06-07T20:39:14.829Z,10.24
2019-06-07T20:44:19.814Z,5.22
2019-06-07T20:49:40.938Z,6.68
2019-06-07T20:54:45.443Z,5.96
2019-06-07T21:04:33.326Z,5.05
2019-06-07T21:09:41.215Z,5.66
2019-06-07T21:14:54.191Z,5.38
2019-06-07T21:20:06.026Z,6.56
2019-06-07T22:11:10.164Z,5.88
2019-06-07T22:16:26.292Z,6.05
2019-06-07T22:21:16.210Z,5.79
2019-06-07T22:26:06.997Z,5.61
2019-06-07T22:36:35.394Z,5.03
2019-06-07T22:41:33.010Z,5.71
2019-06-07T22:46:47.128Z,5.25
2019-06-07T23:01:51.017Z,5.73
2019-06-07T23:06:44.311Z,5.16
2019-06-07T23:17:05.899Z,5.40
2019-06-07T23:22:16.086Z,7.50
2019-06-07T23:27:18.446Z,7.08
2019-06-07T23:32:28.787Z,7.21
2019-06-07T23:37:28.535Z,5.27
2019-06-07T23:42:44.994Z,5.15
2019-06-07T23:47:28.450Z,5.47
2019-06-07T23:52:43.763Z,7.07
2019-06-07T23:57:49.192Z,6.41
